createdAt,value
2019-02-18T00:00:53.829Z,1014.24
2019-02-18T00:01:53.844Z,1014.23
2019-02-18T00:02:53.867Z,1014.27
2019-02-18T00:03:53.875Z,1014.25
2019-02-18T00:04:53.894Z,1014.21
2019-02-18T00:05:53.915Z,1014.26
2019-02-18T00:06:53.929Z,1014.25
2019-02-18T00:07:53.945Z,1014.28
2019-02-18T00:08:53.961Z,1014.24
2019-02-18T00:09:53.977Z,1014.26
2019-02-18T00:10:53.991Z,1014.27
2019-02-18T00:11:54.006Z,1014.25
2019-02-18T00:12:54.024Z,1014.32
2019-02-18T00:13:54.042Z,1014.33
2019-02-18T00:14:54.053Z,1014.30
2019-02-18T00:15:54.071Z,1014.31
2019-02-18T00:16:54.087Z,1014.32
2019-02-18T00:17:54.100Z,1014.32
2019-02-18T00:18:54.116Z,1014.27
2019-02-18T00:19:54.135Z,1014.27
2019-02-18T00:20:54.149Z,1014.26
2019-02-18T00:21:54.169Z,1014.31
2019-02-18T00:22:54.180Z,1014.36
2019-02-18T00:23:54.197Z,1014.33
2019-02-18T00:24:54.215Z,1014.33
2019-02-18T00:25:54.237Z,1014.32
2019-02-18T00:26:54.253Z,1014.30
2019-02-18T00:27:54.269Z,1014.31
2019-02-18T00:28:54.280Z,1014.26
2019-02-18T00:29:54.296Z,1014.26
2019-02-18T00:30:54.308Z,1014.27
2019-02-18T00:31:54.324Z,1014.23
2019-02-18T00:32:54.340Z,1014.27
2019-02-18T00:33:54.360Z,1014.24
2019-02-18T00:34:54.380Z,1014.27
2019-02-18T00:35:54.388Z,1014.26
2019-02-18T00:36:54.404Z,1014.27
2019-02-18T00:37:54.419Z,1014.24
2019-02-18T00:38:54.436Z,1014.20
2019-02-18T00:39:54.458Z,1014.23
2019-02-18T00:40:54.475Z,1014.26
2019-02-18T00:41:54.483Z,1014.25
2019-02-18T00:42:54.500Z,1014.27
2019-02-18T00:43:54.519Z,1014.29
2019-02-18T00:44:54.533Z,1014.34
2019-02-18T00:45:54.554Z,1014.32
2019-02-18T00:46:54.565Z,1014.29
2019-02-18T00:47:54.579Z,1014.30
2019-02-18T00:48:54.597Z,1014.29
2019-02-18T00:49:54.614Z,1014.26
2019-02-18T00:50:54.679Z,1014.23
2019-02-18T00:51:54.644Z,1014.24
2019-02-18T00:52:54.657Z,1014.24
2019-02-18T00:53:54.679Z,1014.23
2019-02-18T00:54:54.689Z,1014.24
2019-02-18T00:55:54.705Z,1014.24
2019-02-18T00:56:54.727Z,1014.25
2019-02-18T00:57:54.736Z,1014.24
2019-02-18T00:58:54.753Z,1014.24
2019-02-18T00:59:54.771Z,1014.23
2019-02-18T01:00:54.787Z,1014.29
2019-02-18T01:01:54.806Z,1014.28
2019-02-18T01:02:54.818Z,1014.24
2019-02-18T01:03:54.832Z,1014.26
2019-02-18T01:04:54.851Z,1014.25
2019-02-18T01:05:54.869Z,1014.25
2019-02-18T01:06:54.885Z,1014.30
2019-02-18T01:07:54.895Z,1014.28
2019-02-18T01:08:54.915Z,1014.30
2019-02-18T01:09:54.928Z,1014.32
2019-02-18T01:10:54.944Z,1014.32
2019-02-18T01:11:54.963Z,1014.34
2019-02-18T01:12:54.975Z,1014.28
2019-02-18T01:13:54.997Z,1014.29
2019-02-18T01:14:55.010Z,1014.32
2019-02-18T01:15:55.020Z,1014.30
2019-02-18T01:16:55.036Z,1014.27
2019-02-18T01:17:55.050Z,1014.31
2019-02-18T01:18:55.069Z,1014.24
2019-02-18T01:19:55.089Z,1014.22
2019-02-18T01:20:55.101Z,1014.22
2019-02-18T01:21:55.114Z,1014.25
2019-02-18T01:22:55.139Z,1014.22
2019-02-18T01:23:55.153Z,1014.23
2019-02-18T01:24:55.161Z,1014.20
2019-02-18T01:25:55.186Z,1014.23
2019-02-18T01:26:55.194Z,1014.19
2019-02-18T01:27:55.210Z,1014.22
2019-02-18T01:28:55.231Z,1014.21
2019-02-18T01:29:55.238Z,1014.21
2019-02-18T01:30:55.263Z,1014.22
2019-02-18T01:31:55.274Z,1014.20
2019-02-18T01:32:55.289Z,1014.17
2019-02-18T01:33:55.303Z,1014.20
2019-02-18T01:34:55.327Z,1014.23
2019-02-18T01:35:55.335Z,1014.22
2019-02-18T01:36:55.351Z,1014.24
2019-02-18T01:37:55.361Z,1014.22
2019-02-18T01:38:55.378Z,1014.25
2019-02-18T01:39:55.395Z,1014.24
2019-02-18T01:40:55.412Z,1014.21
2019-02-18T01:41:55.426Z,1014.22
2019-02-18T01:42:55.441Z,1014.22
2019-02-18T01:43:55.459Z,1014.17
2019-02-18T01:44:55.472Z,1014.18
2019-02-18T01:45:55.495Z,1014.19
2019-02-18T01:46:55.507Z,1014.18
2019-02-18T01:47:55.518Z,1014.18
2019-02-18T01:48:55.536Z,1014.15
2019-02-18T01:49:55.552Z,1014.13
2019-02-18T01:50:55.566Z,1014.14
2019-02-18T01:51:55.588Z,1014.17
2019-02-18T01:52:55.599Z,1014.15
2019-02-18T01:53:55.615Z,1014.16
2019-02-18T01:54:55.629Z,1014.13
2019-02-18T01:55:55.644Z,1014.12
2019-02-18T01:56:55.657Z,1014.09
2019-02-18T01:57:55.675Z,1014.08
2019-02-18T01:58:55.695Z,1014.07
2019-02-18T01:59:55.703Z,1014.08
2019-02-18T02:00:55.722Z,1014.08
2019-02-18T02:01:55.737Z,1014.01
2019-02-18T02:02:55.751Z,1014.04
2019-02-18T02:03:55.773Z,1014.01
2019-02-18T02:04:55.783Z,1014.03
2019-02-18T02:05:55.856Z,1014.02
2019-02-18T02:06:55.813Z,1014.03
2019-02-18T02:07:56.786Z,1014.06
2019-02-18T02:08:55.843Z,1014.05
2019-02-18T02:09:55.865Z,1014.04
2019-02-18T02:10:55.882Z,1014.05
2019-02-18T02:11:55.888Z,1014.07
2019-02-18T02:12:55.905Z,1014.06
2019-02-18T02:13:55.918Z,1014.05
2019-02-18T02:14:55.936Z,1014.03
2019-02-18T02:15:55.955Z,1013.98
2019-02-18T02:16:55.964Z,1014.04
2019-02-18T02:17:55.982Z,1014.01
2019-02-18T02:18:55.999Z,1014.01
2019-02-18T02:19:56.013Z,1014.03
2019-02-18T02:20:56.034Z,1013.99
2019-02-18T02:21:56.043Z,1013.96
2019-02-18T02:22:56.059Z,1013.96
2019-02-18T02:23:56.073Z,1013.95
2019-02-18T02:24:56.090Z,1013.95
2019-02-18T02:25:56.151Z,1013.95
2019-02-18T02:26:56.121Z,1013.91
2019-02-18T02:27:56.136Z,1013.90
2019-02-18T02:28:56.153Z,1013.93
2019-02-18T02:29:56.167Z,1013.95
2019-02-18T02:30:56.182Z,1013.91
2019-02-18T02:31:56.199Z,1013.89
2019-02-18T02:32:56.220Z,1013.90
2019-02-18T02:33:56.226Z,1013.91
2019-02-18T02:34:56.243Z,1013.89
2019-02-18T02:35:56.264Z,1013.90
2019-02-18T02:36:56.274Z,1013.90
2019-02-18T02:38:07.064Z,1013.89
2019-02-18T02:38:56.307Z,1013.89
2019-02-18T02:39:56.330Z,1013.90
2019-02-18T02:40:56.337Z,1013.91
2019-02-18T02:41:56.353Z,1013.86
2019-02-18T02:42:56.364Z,1013.90
2019-02-18T02:43:56.383Z,1013.89
2019-02-18T02:44:56.398Z,1013.87
2019-02-18T02:45:56.417Z,1013.88
2019-02-18T02:46:56.434Z,1013.89
2019-02-18T02:47:56.456Z,1013.90
2019-02-18T02:48:56.459Z,1013.90
2019-02-18T02:49:56.480Z,1013.92
2019-02-18T02:50:56.490Z,1013.93
2019-02-18T02:51:56.505Z,1013.90
2019-02-18T02:52:56.523Z,1013.90
2019-02-18T02:53:56.534Z,1013.91
2019-02-18T02:54:56.557Z,1013.90
2019-02-18T02:55:56.569Z,1013.88
2019-02-18T02:56:56.588Z,1013.92
2019-02-18T02:57:56.593Z,1013.95
2019-02-18T02:58:56.612Z,1013.90
2019-02-18T02:59:56.633Z,1013.89
2019-02-18T03:00:56.642Z,1013.87
2019-02-18T03:01:56.656Z,1013.86
2019-02-18T03:02:56.680Z,1013.84
2019-02-18T03:03:56.693Z,1013.84
2019-02-18T03:04:56.701Z,1013.84
2019-02-18T03:05:56.717Z,1013.84
2019-02-18T03:06:56.741Z,1013.83
2019-02-18T03:07:56.744Z,1013.81
2019-02-18T03:08:56.762Z,1013.78
2019-02-18T03:09:56.775Z,1013.78
2019-02-18T03:10:56.793Z,1013.80
2019-02-18T03:11:56.844Z,1013.76
2019-02-18T03:12:56.821Z,1013.80
2019-02-18T03:13:56.836Z,1013.81
2019-02-18T03:14:56.854Z,1013.78
2019-02-18T03:15:56.868Z,1013.84
2019-02-18T03:16:56.881Z,1013.83
2019-02-18T03:17:56.898Z,1013.79
2019-02-18T03:18:56.911Z,1013.80
2019-02-18T03:19:56.926Z,1013.83
2019-02-18T03:20:56.948Z,1013.78
2019-02-18T03:21:56.965Z,1013.81
2019-02-18T03:22:56.980Z,1013.80
2019-02-18T03:23:56.997Z,1013.81
2019-02-18T03:24:57.001Z,1013.81
2019-02-18T03:25:57.017Z,1013.78
2019-02-18T03:26:57.033Z,1013.78
2019-02-18T03:27:57.048Z,1013.77
2019-02-18T03:28:57.120Z,1013.76
2019-02-18T03:29:57.084Z,1013.73
2019-02-18T03:30:57.095Z,1013.73
2019-02-18T03:31:57.123Z,1013.72
2019-02-18T03:32:57.122Z,1013.74
2019-02-18T03:33:57.139Z,1013.69
2019-02-18T03:34:57.152Z,1013.72
2019-02-18T03:35:57.167Z,1013.72
2019-02-18T03:36:57.181Z,1013.70
2019-02-18T03:37:57.202Z,1013.69
2019-02-18T03:38:57.216Z,1013.68
2019-02-18T03:39:57.241Z,1013.71
2019-02-18T03:41:03.280Z,1013.71
2019-02-18T03:41:57.258Z,1013.71
2019-02-18T03:42:57.270Z,1013.76
2019-02-18T03:43:57.288Z,1013.72
2019-02-18T03:44:57.303Z,1013.74
2019-02-18T03:45:57.321Z,1013.78
2019-02-18T03:46:57.332Z,1013.77
2019-02-18T03:47:57.345Z,1013.75
2019-02-18T03:48:57.360Z,1013.79
2019-02-18T03:49:57.377Z,1013.81
2019-02-18T03:50:57.391Z,1013.81
2019-02-18T03:51:57.409Z,1013.84
2019-02-18T03:52:57.423Z,1013.87
2019-02-18T03:53:57.441Z,1013.83
2019-02-18T03:54:57.453Z,1013.83
2019-02-18T03:55:57.470Z,1013.85
2019-02-18T03:56:57.482Z,1013.84
2019-02-18T03:57:57.500Z,1013.84
2019-02-18T03:58:57.511Z,1013.84
2019-02-18T03:59:57.525Z,1013.85
2019-02-18T04:00:57.543Z,1013.80
2019-02-18T04:01:57.578Z,1013.85
2019-02-18T04:02:57.578Z,1013.85
2019-02-18T04:03:57.583Z,1013.82
2019-02-18T04:04:57.605Z,1013.78
2019-02-18T04:05:57.613Z,1013.83
2019-02-18T04:06:57.631Z,1013.82
2019-02-18T04:07:57.650Z,1013.79
2019-02-18T04:08:57.668Z,1013.81
2019-02-18T04:09:57.672Z,1013.81
2019-02-18T04:10:57.697Z,1013.83
2019-02-18T04:11:57.703Z,1013.86
2019-02-18T04:12:57.721Z,1013.81
2019-02-18T04:13:57.829Z,1013.85
2019-02-18T04:14:57.748Z,1013.84
2019-02-18T04:15:57.762Z,1013.81
2019-02-18T04:16:57.779Z,1013.82
2019-02-18T04:17:57.793Z,1013.82
2019-02-18T04:18:57.808Z,1013.83
2019-02-18T04:19:57.824Z,1013.85
2019-02-18T04:20:57.844Z,1013.92
2019-02-18T04:21:57.852Z,1013.85
2019-02-18T04:22:57.867Z,1013.87
2019-02-18T04:23:57.888Z,1013.92
2019-02-18T04:24:57.899Z,1013.89
2019-02-18T04:25:57.911Z,1013.90
2019-02-18T04:26:57.935Z,1013.92
2019-02-18T04:27:57.941Z,1013.89
2019-02-18T04:28:57.957Z,1013.88
2019-02-18T04:29:57.969Z,1013.85
2019-02-18T04:30:57.984Z,1013.82
2019-02-18T04:31:58.007Z,1013.81
2019-02-18T04:32:58.013Z,1013.77
2019-02-18T04:33:58.037Z,1013.75
2019-02-18T04:34:58.044Z,1013.80
2019-02-18T04:35:58.057Z,1013.78
2019-02-18T04:36:58.075Z,1013.78
2019-02-18T04:37:58.086Z,1013.72
2019-02-18T04:38:58.102Z,1013.74
2019-02-18T04:39:58.118Z,1013.76
2019-02-18T04:40:58.141Z,1013.82
2019-02-18T04:41:58.157Z,1013.80
2019-02-18T04:42:58.162Z,1013.84
2019-02-18T04:43:58.176Z,1013.79
2019-02-18T04:44:58.196Z,1013.80
2019-02-18T04:45:58.207Z,1013.76
2019-02-18T04:46:58.226Z,1013.78
2019-02-18T04:47:58.239Z,1013.82
2019-02-18T04:48:58.248Z,1013.81
2019-02-18T04:49:58.264Z,1013.83
2019-02-18T04:50:58.276Z,1013.82
2019-02-18T04:51:58.291Z,1013.83
2019-02-18T04:52:58.316Z,1013.80
2019-02-18T04:53:58.323Z,1013.85
2019-02-18T04:54:58.343Z,1013.82
2019-02-18T04:55:58.356Z,1013.78
2019-02-18T04:56:58.365Z,1013.76
2019-02-18T04:57:58.380Z,1013.79
2019-02-18T04:58:58.397Z,1013.77
2019-02-18T04:59:58.424Z,1013.76
2019-02-18T05:00:58.426Z,1013.75
2019-02-18T05:01:58.437Z,1013.72
2019-02-18T05:02:58.470Z,1013.73
2019-02-18T05:03:58.498Z,1013.70
2019-02-18T05:04:58.482Z,1013.70
2019-02-18T05:05:58.497Z,1013.68
2019-02-18T05:06:58.510Z,1013.66
2019-02-18T05:07:58.536Z,1013.67
2019-02-18T05:09:05.408Z,1013.66
2019-02-18T05:09:58.553Z,1013.64
2019-02-18T05:10:58.568Z,1013.68
2019-02-18T05:11:58.585Z,1013.62
2019-02-18T05:12:58.599Z,1013.62
2019-02-18T05:13:58.612Z,1013.65
2019-02-18T05:14:58.631Z,1013.62
2019-02-18T05:15:58.646Z,1013.61
2019-02-18T05:16:58.655Z,1013.59
2019-02-18T05:17:58.671Z,1013.56
2019-02-18T05:18:58.687Z,1013.60
2019-02-18T05:19:58.701Z,1013.55
2019-02-18T05:20:58.716Z,1013.55
2019-02-18T05:21:58.727Z,1013.58
2019-02-18T05:22:58.754Z,1013.56
2019-02-18T05:23:58.765Z,1013.53
2019-02-18T05:24:58.771Z,1013.59
2019-02-18T05:25:58.794Z,1013.48
2019-02-18T05:26:58.800Z,1013.50
2019-02-18T05:27:58.819Z,1013.48
2019-02-18T05:28:58.829Z,1013.50
2019-02-18T05:29:58.853Z,1013.47
2019-02-18T05:30:58.863Z,1013.47
2019-02-18T05:31:58.873Z,1013.45
2019-02-18T05:32:58.890Z,1013.45
2019-02-18T05:33:58.911Z,1013.42
2019-02-18T05:34:58.920Z,1013.41
2019-02-18T05:35:58.982Z,1013.45
2019-02-18T05:36:58.952Z,1013.45
2019-02-18T05:37:58.962Z,1013.44
2019-02-18T05:38:58.976Z,1013.40
2019-02-18T05:39:58.989Z,1013.44
2019-02-18T05:40:59.004Z,1013.42
2019-02-18T05:41:59.026Z,1013.41
2019-02-18T05:42:59.035Z,1013.45
2019-02-18T05:43:59.057Z,1013.38
2019-02-18T05:44:59.064Z,1013.39
2019-02-18T05:45:59.079Z,1013.39
2019-02-18T05:46:59.343Z,1013.38
2019-02-18T05:47:59.105Z,1013.38
2019-02-18T05:48:59.125Z,1013.35
2019-02-18T05:49:59.146Z,1013.35
2019-02-18T05:50:59.149Z,1013.35
2019-02-18T05:51:59.164Z,1013.34
2019-02-18T05:52:59.183Z,1013.34
2019-02-18T05:53:59.199Z,1013.36
2019-02-18T05:54:59.207Z,1013.35
2019-02-18T05:55:59.222Z,1013.31
2019-02-18T05:56:59.243Z,1013.36
2019-02-18T05:57:59.251Z,1013.38
2019-02-18T05:58:59.269Z,1013.37
2019-02-18T05:59:59.287Z,1013.39
2019-02-18T06:00:59.297Z,1013.34
2019-02-18T06:01:59.309Z,1013.37
2019-02-18T06:02:59.328Z,1013.34
2019-02-18T06:04:00.153Z,1013.36
2019-02-18T06:04:59.354Z,1013.37
2019-02-18T06:05:59.392Z,1013.38
2019-02-18T06:06:59.390Z,1013.34
2019-02-18T06:07:59.397Z,1013.35
2019-02-18T06:08:59.411Z,1013.34
2019-02-18T06:09:59.433Z,1013.32
2019-02-18T06:10:59.453Z,1013.36
2019-02-18T06:11:59.463Z,1013.37
2019-02-18T06:12:59.472Z,1013.34
2019-02-18T06:13:59.483Z,1013.38
2019-02-18T06:14:59.498Z,1013.39
2019-02-18T06:15:59.519Z,1013.40
2019-02-18T06:16:59.528Z,1013.40
2019-02-18T06:17:59.542Z,1013.40
2019-02-18T06:18:59.556Z,1013.42
2019-02-18T06:19:59.571Z,1013.42
2019-02-18T06:20:59.594Z,1013.39
2019-02-18T06:21:59.601Z,1013.42
2019-02-18T06:22:59.628Z,1013.42
2019-02-18T06:23:59.639Z,1013.41
2019-02-18T06:24:59.646Z,1013.46
2019-02-18T06:25:59.670Z,1013.41
2019-02-18T06:26:59.873Z,1013.40
2019-02-18T06:27:59.693Z,1013.40
2019-02-18T06:28:59.702Z,1013.40
2019-02-18T06:29:59.718Z,1013.38
2019-02-18T06:30:59.733Z,1013.39
2019-02-18T06:31:59.750Z,1013.38
2019-02-18T06:33:01.151Z,1013.41
2019-02-18T06:33:59.777Z,1013.41
2019-02-18T06:34:59.792Z,1013.37
2019-02-18T06:35:59.811Z,1013.39
2019-02-18T06:36:59.819Z,1013.36
2019-02-18T06:37:59.836Z,1013.42
2019-02-18T06:38:59.848Z,1013.42
2019-02-18T06:39:59.865Z,1013.40
2019-02-18T06:40:59.877Z,1013.45
2019-02-18T06:41:59.896Z,1013.43
2019-02-18T06:42:59.907Z,1013.45
2019-02-18T06:43:59.921Z,1013.47
2019-02-18T06:44:59.936Z,1013.46
2019-02-18T06:45:59.950Z,1013.48
2019-02-18T06:46:59.964Z,1013.42
2019-02-18T06:47:59.981Z,1013.49
2019-02-18T06:48:59.992Z,1013.43
2019-02-18T06:50:00.014Z,1013.47
2019-02-18T06:51:00.022Z,1013.44
2019-02-18T06:52:00.037Z,1013.50
2019-02-18T06:53:00.050Z,1013.50
2019-02-18T06:54:00.064Z,1013.53
2019-02-18T06:55:00.306Z,1013.52
2019-02-18T06:56:00.120Z,1013.52
2019-02-18T06:57:00.115Z,1013.52
2019-02-18T06:58:00.125Z,1013.56
2019-02-18T06:59:00.142Z,1013.54
2019-02-18T07:00:00.226Z,1013.57
2019-02-18T07:01:00.166Z,1013.56
2019-02-18T07:02:00.185Z,1013.61
2019-02-18T07:03:00.194Z,1013.62
2019-02-18T07:04:00.211Z,1013.60
2019-02-18T07:05:00.315Z,1013.64
2019-02-18T07:06:00.240Z,1013.61
2019-02-18T07:07:00.258Z,1013.62
2019-02-18T07:08:00.275Z,1013.59
2019-02-18T07:09:00.282Z,1013.59
2019-02-18T07:10:00.300Z,1013.55
2019-02-18T07:11:00.313Z,1013.56
2019-02-18T07:12:00.335Z,1013.54
2019-02-18T07:13:00.343Z,1013.59
2019-02-18T07:14:00.358Z,1013.61
2019-02-18T07:15:00.372Z,1013.57
2019-02-18T07:16:00.391Z,1013.61
2019-02-18T07:17:00.400Z,1013.62
2019-02-18T07:18:00.414Z,1013.61
2019-02-18T07:19:00.426Z,1013.59
2019-02-18T07:20:00.446Z,1013.60
2019-02-18T07:21:00.456Z,1013.58
2019-02-18T07:22:00.473Z,1013.61
2019-02-18T07:23:00.492Z,1013.59
2019-02-18T07:24:00.502Z,1013.54
2019-02-18T07:25:00.516Z,1013.52
2019-02-18T07:26:00.533Z,1013.51
2019-02-18T07:27:00.546Z,1013.49
2019-02-18T07:28:00.565Z,1013.54
2019-02-18T07:29:00.658Z,1013.52
2019-02-18T07:30:00.587Z,1013.48
2019-02-18T07:31:00.602Z,1013.51
2019-02-18T07:32:00.621Z,1013.49
2019-02-18T07:33:00.631Z,1013.50
2019-02-18T07:34:00.646Z,1013.50
2019-02-18T07:35:00.688Z,1013.50
2019-02-18T07:36:00.672Z,1013.50
2019-02-18T07:37:00.687Z,1013.48
2019-02-18T07:38:00.714Z,1013.43
2019-02-18T07:39:00.727Z,1013.48
2019-02-18T07:40:01.910Z,1013.42
2019-02-18T07:41:00.750Z,1013.43
2019-02-18T07:42:00.770Z,1013.45
2019-02-18T07:43:00.779Z,1013.45
2019-02-18T07:44:00.791Z,1013.45
2019-02-18T07:45:00.809Z,1013.44
2019-02-18T07:46:00.821Z,1013.45
2019-02-18T07:47:00.835Z,1013.44
2019-02-18T07:48:00.850Z,1013.39
2019-02-18T07:49:00.868Z,1013.42
2019-02-18T07:50:00.885Z,1013.42
2019-02-18T07:51:00.895Z,1013.46
2019-02-18T07:52:00.912Z,1013.41
2019-02-18T07:53:00.928Z,1013.38
2019-02-18T07:54:00.938Z,1013.42
2019-02-18T07:55:00.953Z,1013.39
2019-02-18T07:56:00.967Z,1013.37
2019-02-18T07:57:00.985Z,1013.36
2019-02-18T07:58:01.654Z,1013.33
2019-02-18T07:59:01.012Z,1013.35
2019-02-18T08:00:01.029Z,1013.38
2019-02-18T08:01:01.044Z,1013.38
2019-02-18T08:02:01.059Z,1013.39
2019-02-18T08:03:01.074Z,1013.34
2019-02-18T08:04:01.087Z,1013.36
2019-02-18T08:05:02.254Z,1013.37
2019-02-18T08:06:01.116Z,1013.35
2019-02-18T08:07:01.137Z,1013.36
2019-02-18T08:08:01.152Z,1013.37
2019-02-18T08:09:01.163Z,1013.36
2019-02-18T08:10:11.539Z,1013.41
2019-02-18T08:11:01.195Z,1013.40
2019-02-18T08:12:01.209Z,1013.36
2019-02-18T08:13:01.225Z,1013.40
2019-02-18T08:14:01.238Z,1013.46
2019-02-18T08:15:01.252Z,1013.43
2019-02-18T08:16:01.271Z,1013.48
2019-02-18T08:17:01.281Z,1013.46
2019-02-18T08:18:01.364Z,1013.45
2019-02-18T08:19:01.310Z,1013.45
2019-02-18T08:20:01.334Z,1013.47
2019-02-18T08:21:01.340Z,1013.46
2019-02-18T08:22:01.366Z,1013.47
2019-02-18T08:23:01.372Z,1013.48
2019-02-18T08:24:01.402Z,1013.46
2019-02-18T08:25:01.401Z,1013.43
2019-02-18T08:26:01.417Z,1013.46
2019-02-18T08:27:01.449Z,1013.41
2019-02-18T08:28:01.450Z,1013.44
2019-02-18T08:29:01.465Z,1013.40
2019-02-18T08:30:01.482Z,1013.41
2019-02-18T08:31:01.495Z,1013.43
2019-02-18T08:32:01.508Z,1013.43
2019-02-18T08:33:01.524Z,1013.39
2019-02-18T08:34:01.540Z,1013.45
2019-02-18T08:35:01.554Z,1013.36
2019-02-18T08:36:01.572Z,1013.37
2019-02-18T08:37:01.598Z,1013.39
2019-02-18T08:38:01.602Z,1013.38
2019-02-18T08:39:01.617Z,1013.42
2019-02-18T08:40:01.631Z,1013.40
2019-02-18T08:41:01.653Z,1013.38
2019-02-18T08:42:01.671Z,1013.36
2019-02-18T08:43:01.679Z,1013.33
2019-02-18T08:44:01.693Z,1013.35
2019-02-18T08:45:01.715Z,1013.33
2019-02-18T08:46:01.723Z,1013.33
2019-02-18T08:47:01.739Z,1013.32
2019-02-18T08:48:01.755Z,1013.29
2019-02-18T08:49:01.770Z,1013.35
2019-02-18T08:50:01.786Z,1013.32
2019-02-18T08:51:01.807Z,1013.32
2019-02-18T08:52:01.820Z,1013.33
2019-02-18T08:53:01.833Z,1013.32
2019-02-18T08:54:01.857Z,1013.31
2019-02-18T08:55:01.866Z,1013.31
2019-02-18T08:56:01.880Z,1013.27
2019-02-18T08:57:01.898Z,1013.25
2019-02-18T08:58:01.929Z,1013.26
2019-02-18T08:59:01.926Z,1013.22
2019-02-18T09:00:01.943Z,1013.25
2019-02-18T09:01:02.833Z,1013.24
2019-02-18T09:02:01.975Z,1013.24
2019-02-18T09:03:01.992Z,1013.25
2019-02-18T09:04:02.008Z,1013.23
2019-02-18T09:05:02.031Z,1013.26
2019-02-18T09:06:02.036Z,1013.19
2019-02-18T09:07:02.060Z,1013.21
2019-02-18T09:08:02.069Z,1013.19
2019-02-18T09:09:02.085Z,1013.18
2019-02-18T09:10:02.100Z,1013.19
2019-02-18T09:11:02.118Z,1013.17
2019-02-18T09:12:02.141Z,1013.16
2019-02-18T09:13:02.155Z,1013.18
2019-02-18T09:14:02.167Z,1013.14
2019-02-18T09:15:02.182Z,1013.14
2019-02-18T09:16:02.198Z,1013.15
2019-02-18T09:17:02.221Z,1013.15
2019-02-18T09:18:02.231Z,1013.15
2019-02-18T09:19:02.248Z,1013.18
2019-02-18T09:20:02.261Z,1013.13
2019-02-18T09:21:02.282Z,1013.08
2019-02-18T09:22:02.294Z,1013.10
2019-02-18T09:23:02.311Z,1013.11
2019-02-18T09:24:02.333Z,1013.10
2019-02-18T09:25:02.349Z,1013.07
2019-02-18T09:26:02.448Z,1013.10
2019-02-18T09:27:02.375Z,1013.10
2019-02-18T09:28:02.392Z,1013.11
2019-02-18T09:29:02.410Z,1013.10
2019-02-18T09:30:02.425Z,1013.16
2019-02-18T09:31:02.448Z,1013.15
2019-02-18T09:32:02.461Z,1013.13
2019-02-18T09:33:02.480Z,1013.11
2019-02-18T09:34:02.494Z,1013.16
2019-02-18T09:35:02.515Z,1013.16
2019-02-18T09:36:02.537Z,1013.17
2019-02-18T09:37:02.543Z,1013.14
2019-02-18T09:38:02.561Z,1013.16
2019-02-18T09:39:02.576Z,1013.21
2019-02-18T09:40:02.595Z,1013.17
2019-02-18T09:41:02.610Z,1013.13
2019-02-18T09:42:02.631Z,1013.14
2019-02-18T09:43:02.644Z,1013.18
2019-02-18T09:44:02.670Z,1013.16
2019-02-18T09:45:02.678Z,1013.11
2019-02-18T09:46:02.709Z,1013.16
2019-02-18T09:47:02.716Z,1013.14
2019-02-18T09:48:02.733Z,1013.12
2019-02-18T09:49:02.750Z,1013.13
2019-02-18T09:50:02.865Z,1013.11
2019-02-18T09:51:02.790Z,1013.09
2019-02-18T09:52:02.800Z,1013.10
2019-02-18T09:53:02.834Z,1013.07
2019-02-18T09:54:02.837Z,1013.07
2019-02-18T09:55:02.853Z,1013.13
2019-02-18T09:56:02.879Z,1013.11
2019-02-18T09:57:02.891Z,1013.11
2019-02-18T09:58:02.909Z,1013.13
2019-02-18T09:59:02.928Z,1013.12
2019-02-18T10:00:02.942Z,1013.05
2019-02-18T10:01:02.961Z,1013.12
2019-02-18T10:02:02.978Z,1013.06
2019-02-18T10:03:02.992Z,1013.06
2019-02-18T10:04:03.009Z,1013.06
2019-02-18T10:05:03.030Z,1013.05
2019-02-18T10:06:03.055Z,1013.06
2019-02-18T10:07:03.068Z,1013.07
2019-02-18T10:08:03.084Z,1013.10
2019-02-18T10:09:03.101Z,1013.06
2019-02-18T10:10:04.678Z,1013.05
2019-02-18T10:11:03.137Z,1013.06
2019-02-18T10:12:03.155Z,1013.06
2019-02-18T10:13:03.171Z,1013.05
2019-02-18T10:14:03.190Z,1013.04
2019-02-18T10:15:03.209Z,1013.07
2019-02-18T10:16:03.226Z,1013.02
2019-02-18T10:17:03.247Z,1013.03
2019-02-18T10:18:03.261Z,1013.02
2019-02-18T10:19:03.279Z,1013.04
2019-02-18T10:20:03.301Z,1013.02
2019-02-18T10:21:03.321Z,1012.98
2019-02-18T10:22:03.336Z,1012.96
2019-02-18T10:23:03.355Z,1012.99
2019-02-18T10:24:03.380Z,1012.94
2019-02-18T10:25:03.396Z,1012.94
2019-02-18T10:26:03.419Z,1012.95
2019-02-18T10:27:03.429Z,1012.91
2019-02-18T10:28:03.453Z,1012.95
2019-02-18T10:29:03.467Z,1012.91
2019-02-18T10:30:03.485Z,1012.88
2019-02-18T10:31:03.506Z,1012.89
2019-02-18T10:32:03.524Z,1012.86
2019-02-18T10:33:03.542Z,1012.85
2019-02-18T10:34:03.562Z,1012.81
2019-02-18T10:35:03.581Z,1012.79
2019-02-18T10:36:03.597Z,1012.84
2019-02-18T10:37:03.672Z,1012.78
2019-02-18T10:38:03.632Z,1012.81
2019-02-18T10:39:03.651Z,1012.82
2019-02-18T10:40:03.676Z,1012.78
2019-02-18T10:41:06.833Z,1012.77
2019-02-18T10:42:03.707Z,1012.74
2019-02-18T10:43:03.730Z,1012.68
2019-02-18T10:44:03.750Z,1012.72
2019-02-18T10:45:03.772Z,1012.68
2019-02-18T10:46:03.785Z,1012.71
2019-02-18T10:47:04.204Z,1012.68
2019-02-18T10:48:03.830Z,1012.65
2019-02-18T10:49:03.844Z,1012.67
2019-02-18T10:50:04.163Z,1012.62
2019-02-18T10:51:03.882Z,1012.66
2019-02-18T10:52:03.904Z,1012.63
2019-02-18T10:53:04.170Z,1012.61
2019-02-18T10:54:03.939Z,1012.60
2019-02-18T10:55:03.959Z,1012.62
2019-02-18T10:56:03.974Z,1012.55
2019-02-18T10:57:04.000Z,1012.54
2019-02-18T10:58:04.016Z,1012.54
2019-02-18T10:59:04.035Z,1012.54
2019-02-18T11:00:04.061Z,1012.53
2019-02-18T11:01:04.074Z,1012.48
2019-02-18T11:02:04.094Z,1012.50
2019-02-18T11:03:04.112Z,1012.51
2019-02-18T11:04:04.131Z,1012.47
2019-02-18T11:05:04.151Z,1012.48
2019-02-18T11:06:04.168Z,1012.47
2019-02-18T11:07:04.192Z,1012.41
2019-02-18T11:08:04.210Z,1012.49
2019-02-18T11:09:04.232Z,1012.45
2019-02-18T11:10:04.248Z,1012.47
2019-02-18T11:11:04.268Z,1012.47
2019-02-18T11:12:04.287Z,1012.45
2019-02-18T11:13:04.306Z,1012.44
2019-02-18T11:14:04.327Z,1012.43
2019-02-18T11:15:04.343Z,1012.40
2019-02-18T11:16:04.366Z,1012.39
2019-02-18T11:17:04.383Z,1012.35
2019-02-18T11:18:04.403Z,1012.40
2019-02-18T11:19:04.423Z,1012.35
2019-02-18T11:20:04.441Z,1012.34
2019-02-18T11:21:04.466Z,1012.32
2019-02-18T11:22:04.483Z,1012.32
2019-02-18T11:23:04.505Z,1012.29
2019-02-18T11:24:04.528Z,1012.26
2019-02-18T11:25:04.550Z,1012.29
2019-02-18T11:26:04.560Z,1012.26
2019-02-18T11:27:04.581Z,1012.27
2019-02-18T11:28:04.599Z,1012.25
2019-02-18T11:29:04.619Z,1012.29
2019-02-18T11:30:04.640Z,1012.23
2019-02-18T11:31:04.658Z,1012.23
2019-02-18T11:32:05.085Z,1012.25
2019-02-18T11:33:04.700Z,1012.20
2019-02-18T11:34:04.717Z,1012.20
2019-02-18T11:35:04.743Z,1012.17
2019-02-18T11:36:04.758Z,1012.20
2019-02-18T11:37:04.780Z,1012.15
2019-02-18T11:38:04.809Z,1012.15
2019-02-18T11:39:04.820Z,1012.14
2019-02-18T11:40:04.837Z,1012.13
2019-02-18T11:41:04.858Z,1012.13
2019-02-18T11:42:04.880Z,1012.16
2019-02-18T11:43:04.897Z,1012.09
2019-02-18T11:44:04.920Z,1012.14
2019-02-18T11:45:04.937Z,1012.10
2019-02-18T11:46:04.964Z,1012.13
2019-02-18T11:47:04.983Z,1012.11
2019-02-18T11:48:04.998Z,1012.11
2019-02-18T11:49:05.017Z,1012.12
2019-02-18T11:50:05.049Z,1012.19
2019-02-18T11:51:05.057Z,1012.12
2019-02-18T11:52:05.080Z,1012.10
2019-02-18T11:53:05.098Z,1012.06
2019-02-18T11:54:05.118Z,1012.04
2019-02-18T11:55:05.142Z,1012.01
2019-02-18T11:56:05.162Z,1011.95
2019-02-18T11:57:05.182Z,1011.93
2019-02-18T11:58:05.207Z,1011.92
2019-02-18T11:59:05.224Z,1011.90
2019-02-18T12:00:05.349Z,1011.88
2019-02-18T12:01:05.271Z,1011.87
2019-02-18T12:02:05.287Z,1011.83
2019-02-18T12:03:11.609Z,1011.84
2019-02-18T12:04:05.327Z,1011.84
2019-02-18T12:05:05.348Z,1011.80
2019-02-18T12:06:05.366Z,1011.75